Time,TemperatureF,DewpointF,PressureIn,WindDirection,WindDirectionDegrees,WindSpeedMPH,WindSpeedGustMPH,Humidity,HourlyPrecipIn,Conditions,Clouds,dailyrainin,SoftwareType,DateUTC
2013-04-27 00:00:00,73.0,63.8,30.13,North,0,0.0,2.0,73,0.00,,,-99.99,WeatherLink 5.7,2013-04-27 04:00:00,
2013-04-27 00:15:00,73.0,63.4,30.13,North,-999,0.0,0.0,72,0.00,,,-99.99,WeatherLink 5.7,2013-04-27 04:15:00,
2013-04-27 00:30:00,72.8,63.2,30.13,North,0,0.0,5.0,72,0.00,,,-99.99,WeatherLink 5.7,2013-04-27 04:30:00,
2013-04-27 00:45:00,72.9,63.7,30.13,North,0,0.0,1.0,73,0.00,,,-99.99,WeatherLink 5.7,2013-04-27 04:45:00,
2013-04-27 01:00:00,73.0,63.8,30.12,North,0,0.0,4.0,73,0.00,,,-99.99,WeatherLink 5.7,2013-04-27 05:00:00,
2013-04-27 01:15:00,73.0,63.8,30.11,North,0,0.0,5.0,73,0.00,,,-99.99,WeatherLink 5.7,2013-04-27 05:15:00,
2013-04-27 01:30:00,73.0,64.2,30.11,North,0,0.0,4.0,74,0.00,,,-99.99,WeatherLink 5.7,2013-04-27 05:30:00,
2013-04-27 01:45:00,72.8,64.0,30.11,North,0,0.0,5.0,74,0.00,,,-99.99,WeatherLink 5.7,2013-04-27 05:45:00,
2013-04-27 02:00:00,72.7,64.3,30.10,North,0,0.0,6.0,75,0.00,,,-99.99,WeatherLink 5.7,2013-04-27 06:00:00,
2013-04-27 02:15:00,72.4,64.4,30.09,North,0,0.0,2.0,76,0.00,,,-99.99,WeatherLink 5.7,2013-04-27 06:15:00,
2013-04-27 02:30:00,72.1,64.1,30.08,North,-999,0.0,0.0,76,0.00,,,-99.99,WeatherLink 5.7,2013-04-27 06:30:00,
2013-04-27 02:45:00,71.9,64.3,30.08,North,-999,0.0,0.0,77,0.00,,,-99.99,WeatherLink 5.7,2013-04-27 06:45:00,
2013-04-27 03:00:00,71.7,64.5,30.08,North,-999,0.0,0.0,78,0.00,,,-99.99,WeatherLink 5.7,2013-04-27 07:00:00,
2013-04-27 03:15:00,71.5,64.3,30.08,North,-999,0.0,0.0,78,0.00,,,-99.99,WeatherLink 5.7,2013-04-27 07:15:00,
2013-04-27 03:30:00,71.2,64.4,30.08,North,-999,0.0,0.0,79,0.00,,,-99.99,WeatherLink 5.7,2013-04-27 07:30:00,
2013-04-27 03:45:00,70.9,64.1,30.08,North,-999,0.0,0.0,79,0.00,,,-99.99,WeatherLink 5.7,2013-04-27 07:45:00,
2013-04-27 04:00:00,70.6,64.1,30.08,North,-999,0.0,0.0,80,0.00,,,-99.99,WeatherLink 5.7,2013-04-27 08:00:00,
2013-04-27 04:15:00,70.3,63.8,30.08,North,-999,0.0,0.0,80,0.00,,,-99.99,WeatherLink 5.7,2013-04-27 08:15:00,
2013-04-27 04:30:00,70.0,63.9,30.08,North,-999,0.0,0.0,81,0.00,,,-99.99,WeatherLink 5.7,2013-04-27 08:30:00,
2013-04-27 04:45:00,69.7,63.6,30.07,North,-999,0.0,0.0,81,0.00,,,-99.99,WeatherLink 5.7,2013-04-27 08:45:00,
2013-04-27 05:00:00,69.4,63.3,30.07,North,-999,0.0,0.0,81,0.00,,,-99.99,WeatherLink 5.7,2013-04-27 09:00:00,
2013-04-27 05:15:00,69.1,63.4,30.07,North,-999,0.0,0.0,82,0.00,,,-99.99,WeatherLink 5.7,2013-04-27 09:15:00,
2013-04-27 05:30:00,68.8,63.1,30.06,North,-999,0.0,0.0,82,0.00,,,-99.99,WeatherLink 5.7,2013-04-27 09:30:00,
2013-04-27 05:45:00,68.6,63.2,30.06,North,-999,0.0,0.0,83,0.00,,,-99.99,WeatherLink 5.7,2013-04-27 09:45:00,
2013-04-27 06:00:00,68.4,63.4,30.06,North,-999,0.0,0.0,84,0.00,,,-99.99,WeatherLink 5.7,2013-04-27 10:00:00,
2013-04-27 06:15:00,68.3,63.3,30.07,North,-999,0.0,0.0,84,0.00,,,-99.99,WeatherLink 5.7,2013-04-27 10:15:00,
2013-04-27 06:30:00,68.1,63.1,30.08,North,-999,0.0,0.0,84,0.00,,,-99.99,WeatherLink 5.7,2013-04-27 10:30:00,
2013-04-27 06:45:00,67.9,62.9,30.08,North,-999,0.0,0.0,84,0.00,,,-99.99,WeatherLink 5.7,2013-04-27 10:45:00,
2013-04-27 07:00:00,67.8,63.1,30.08,North,-999,0.0,0.0,85,0.00,,,-99.99,WeatherLink 5.7,2013-04-27 11:00:00,
2013-04-27 07:15:00,67.8,63.5,30.08,North,-999,0.0,0.0,86,0.00,,,-99.99,WeatherLink 5.7,2013-04-27 11:15:00,
2013-04-27 07:30:00,68.2,64.2,30.09,North,-999,0.0,0.0,87,0.00,,,-99.99,WeatherLink 5.7,2013-04-27 11:30:00,
2013-04-27 07:45:00,68.8,64.8,30.09,North,-999,0.0,0.0,87,0.00,,,-99.99,WeatherLink 5.7,2013-04-27 11:45:00,
2013-04-27 08:00:00,69.4,65.4,30.10,North,-999,0.0,0.0,87,0.00,,,-99.99,WeatherLink 5.7,2013-04-27 12:00:00,
2013-04-27 08:15:00,70.1,65.7,30.10,North,-999,0.0,0.0,86,0.00,,,-99.99,WeatherLink 5.7,2013-04-27 12:15:00,
2013-04-27 08:30:00,70.8,66.4,30.11,North,-999,0.0,0.0,86,0.00,,,-99.99,WeatherLink 5.7,2013-04-27 12:30:00,
2013-04-27 08:45:00,72.1,67.0,30.10,North,-999,0.0,0.0,84,0.00,,,-99.99,WeatherLink 5.7,2013-04-27 12:45:00,
2013-04-27 09:00:00,73.8,67.2,30.10,North,0,0.0,2.0,80,0.00,,,-99.99,WeatherLink 5.7,2013-04-27 13:00:00,
2013-04-27 09:15:00,75.0,67.7,30.10,North,0,1.0,7.0,78,0.00,,,-99.99,WeatherLink 5.7,2013-04-27 13:15:00,
2013-04-27 09:30:00,76.0,67.9,30.11,North,0,0.0,2.0,76,0.00,,,-99.99,WeatherLink 5.7,2013-04-27 13:30:00,
2013-04-27 09:45:00,77.5,68.2,30.11,North,0,0.0,4.0,73,0.00,,,-99.99,WeatherLink 5.7,2013-04-27 13:45:00,
2013-04-27 10:00:00,78.5,68.7,30.11,North,0,0.0,6.0,72,0.00,,,-99.99,WeatherLink 5.7,2013-04-27 14:00:00,
2013-04-27 10:15:00,79.5,68.0,30.11,North,0,0.0,7.0,68,0.00,,,-99.99,WeatherLink 5.7,2013-04-27 14:15:00,
2013-04-27 10:30:00,80.4,67.6,30.11,North,0,0.0,6.0,65,0.00,,,-99.99,WeatherLink 5.7,2013-04-27 14:30:00,
2013-04-27 10:45:00,81.1,66.8,30.11,North,0,0.0,7.0,62,0.00,,,-99.99,WeatherLink 5.7,2013-04-27 14:45:00,
2013-04-27 11:00:00,81.6,65.9,30.11,North,0,0.0,3.0,59,0.00,,,-99.99,WeatherLink 5.7,2013-04-27 15:00:00,
2013-04-27 11:15:00,82.4,66.1,30.11,North,0,0.0,9.0,58,0.00,,,-99.99,WeatherLink 5.7,2013-04-27 15:15:00,
2013-04-27 11:30:00,83.1,65.8,30.11,North,0,0.0,7.0,56,0.00,,,-99.99,WeatherLink 5.7,2013-04-27 15:30:00,
2013-04-27 11:45:00,83.0,65.2,30.11,North,0,0.0,5.0,55,0.00,,,-99.99,WeatherLink 5.7,2013-04-27 15:45:00,
2013-04-27 12:00:00,82.8,64.5,30.10,North,0,0.0,5.0,54,0.00,,,-99.99,WeatherLink 5.7,2013-04-27 16:00:00,
2013-04-27 12:15:00,83.3,64.4,30.09,North,0,0.0,1.0,53,0.00,,,-99.99,WeatherLink 5.7,2013-04-27 16:15:00,
2013-04-27 12:30:00,83.3,63.3,30.09,North,0,0.0,2.0,51,0.00,,,-99.99,WeatherLink 5.7,2013-04-27 16:30:00,
2013-04-27 12:45:00,82.8,63.4,30.08,North,0,0.0,2.0,52,0.00,,,-99.99,WeatherLink 5.7,2013-04-27 16:45:00,
2013-04-27 13:00:00,83.0,64.1,30.08,North,0,0.0,7.0,53,0.00,,,-99.99,WeatherLink 5.7,2013-04-27 17:00:00,
2013-04-27 13:15:00,83.9,64.4,30.08,North,0,0.0,5.0,52,0.00,,,-99.99,WeatherLink 5.7,2013-04-27 17:15:00,
2013-04-27 13:30:00,84.5,64.4,30.07,North,0,0.0,1.0,51,0.00,,,-99.99,WeatherLink 5.7,2013-04-27 17:30:00,
2013-04-27 13:45:00,85.5,64.7,30.07,North,0,0.0,7.0,50,0.00,,,-99.99,WeatherLink 5.7,2013-04-27 17:45:00,
2013-04-27 14:00:00,86.3,65.5,30.06,North,0,0.0,5.0,50,0.00,,,-99.99,WeatherLink 5.7,2013-04-27 18:00:00,
2013-04-27 14:15:00,86.5,66.8,30.06,North,0,0.0,5.0,52,0.00,,,-99.99,WeatherLink 5.7,2013-04-27 18:15:00,
2013-04-27 14:30:00,85.2,67.7,30.05,North,0,1.0,9.0,56,0.00,,,-99.99,WeatherLink 5.7,2013-04-27 18:30:00,
2013-04-27 14:45:00,83.9,67.0,30.05,North,0,1.0,10.0,57,0.00,,,-99.99,WeatherLink 5.7,2013-04-27 18:45:00,
2013-04-27 15:00:00,83.1,66.8,30.05,North,0,0.0,7.0,58,0.00,,,-99.99,WeatherLink 5.7,2013-04-27 19:00:00,
2013-04-27 15:15:00,81.8,66.6,30.04,North,0,1.0,10.0,60,0.00,,,-99.99,WeatherLink 5.7,2013-04-27 19:15:00,
2013-04-27 15:30:00,81.4,67.1,30.03,North,0,1.0,11.0,62,0.00,,,-99.99,WeatherLink 5.7,2013-04-27 19:30:00,
2013-04-27 15:45:00,81.9,66.2,30.02,North,0,4.0,13.0,59,0.00,,,-99.99,WeatherLink 5.7,2013-04-27 19:45:00,
2013-04-27 16:00:00,81.8,66.6,30.02,North,0,2.0,13.0,60,0.00,,,-99.99,WeatherLink 5.7,2013-04-27 20:00:00,
2013-04-27 16:15:00,81.8,66.6,30.02,North,0,1.0,10.0,60,0.00,,,-99.99,WeatherLink 5.7,2013-04-27 20:15:00,
2013-04-27 16:30:00,80.9,66.2,30.02,North,0,1.0,6.0,61,0.00,,,-99.99,WeatherLink 5.7,2013-04-27 20:30:00,
2013-04-27 16:45:00,80.0,66.3,30.02,North,0,1.0,11.0,63,0.00,,,-99.99,WeatherLink 5.7,2013-04-27 20:45:00,
2013-04-27 17:00:00,79.8,65.6,30.01,North,0,1.0,8.0,62,0.00,,,-99.99,WeatherLink 5.7,2013-04-27 21:00:00,
2013-04-27 17:15:00,79.6,65.9,30.01,North,0,1.0,10.0,63,0.00,,,-99.99,WeatherLink 5.7,2013-04-27 21:15:00,
2013-04-27 17:30:00,79.3,65.6,30.00,North,0,2.0,11.0,63,0.00,,,-99.99,WeatherLink 5.7,2013-04-27 21:30:00,
2013-04-27 17:45:00,79.4,65.2,30.01,North,0,2.0,11.0,62,0.00,,,-99.99,WeatherLink 5.7,2013-04-27 21:45:00,
2013-04-27 18:00:00,79.2,66.4,30.01,North,0,2.0,10.0,65,0.00,,,-99.99,WeatherLink 5.7,2013-04-27 22:00:00,
2013-04-27 18:15:00,78.5,65.8,30.00,North,0,1.0,9.0,65,0.00,,,-99.99,WeatherLink 5.7,2013-04-27 22:15:00,
2013-04-27 18:30:00,78.2,65.9,30.01,North,0,3.0,10.0,66,0.00,,,-99.99,WeatherLink 5.7,2013-04-27 22:30:00,
2013-04-27 18:45:00,77.8,65.5,30.00,North,0,1.0,9.0,66,0.00,,,-99.99,WeatherLink 5.7,2013-04-27 22:45:00,
2013-04-27 19:00:00,77.6,65.3,30.00,North,0,1.0,10.0,66,0.00,,,-99.99,WeatherLink 5.7,2013-04-27 23:00:00,
2013-04-27 19:15:00,77.5,65.2,30.00,North,0,0.0,6.0,66,0.00,,,-99.99,WeatherLink 5.7,2013-04-27 23:15:00,
2013-04-27 19:30:00,77.2,65.0,30.00,North,0,0.0,6.0,66,0.00,,,-99.99,WeatherLink 5.7,2013-04-27 23:30:00,
2013-04-27 19:45:00,76.8,64.6,30.00,North,0,0.0,1.0,66,0.00,,,-99.99,WeatherLink 5.7,2013-04-27 23:45:00,
2013-04-27 20:00:00,76.3,64.1,30.01,North,-999,0.0,0.0,66,0.00,,,-99.99,WeatherLink 5.7,2013-04-28 00:00:00,
2013-04-27 20:15:00,75.8,64.1,30.01,North,-999,0.0,0.0,67,0.00,,,-99.99,WeatherLink 5.7,2013-04-28 00:15:00,
2013-04-27 20:30:00,75.4,64.1,30.02,North,-999,0.0,0.0,68,0.00,,,-99.99,WeatherLink 5.7,2013-04-28 00:30:00,
2013-04-27 20:45:00,75.1,64.2,30.02,North,-999,0.0,0.0,69,0.00,,,-99.99,WeatherLink 5.7,2013-04-28 00:45:00,
2013-04-27 21:00:00,75.1,64.2,30.02,North,-999,0.0,0.0,69,0.00,,,-99.99,WeatherLink 5.7,2013-04-28 01:00:00,
2013-04-27 21:15:00,75.0,64.1,30.02,North,-999,0.0,0.0,69,0.00,,,-99.99,WeatherLink 5.7,2013-04-28 01:15:00,
2013-04-27 21:30:00,74.7,64.3,30.02,North,-999,0.0,0.0,70,0.00,,,-99.99,WeatherLink 5.7,2013-04-28 01:30:00,
2013-04-27 21:45:00,74.4,63.6,30.03,North,-999,0.0,0.0,69,0.00,,,-99.99,WeatherLink 5.7,2013-04-28 01:45:00,
2013-04-27 22:00:00,73.9,63.1,30.03,North,-999,0.0,0.0,69,0.00,,,-99.99,WeatherLink 5.7,2013-04-28 02:00:00,
2013-04-27 22:15:00,73.6,62.4,30.04,North,0,0.0,4.0,68,0.00,,,-99.99,WeatherLink 5.7,2013-04-28 02:15:00,
2013-04-27 22:30:00,74.0,62.8,30.04,North,0,0.0,7.0,68,0.00,,,-99.99,WeatherLink 5.7,2013-04-28 02:30:00,
2013-04-27 22:45:00,74.5,63.2,30.04,North,0,0.0,6.0,68,0.00,,,-99.99,WeatherLink 5.7,2013-04-28 02:45:00,
2013-04-27 23:00:00,74.7,63.0,30.04,North,0,0.0,1.0,67,0.00,,,-99.99,WeatherLink 5.7,2013-04-28 03:00:00,
2013-04-27 23:15:00,74.7,63.4,30.04,North,0,0.0,6.0,68,0.00,,,-99.99,WeatherLink 5.7,2013-04-28 03:15:00,
2013-04-27 23:30:00,74.5,63.2,30.04,North,0,0.0,9.0,68,0.00,,,-99.99,WeatherLink 5.7,2013-04-28 03:30:00,
2013-04-27 23:45:00,74.4,63.1,30.03,North,0,0.0,5.0,68,0.00,,,-99.99,WeatherLink 5.7,2013-04-28 03:45:00,